Sonic Adventure (DX): Overall Rankings

Records: Times | Rings | Scores | Races | Bosses | Freestyle
Leaders: Times | Rings | Scores | Races | Bosses | Freestyle | Overall
Rank Order Asc Player Percent Points Date
1 Sonicspeedruner 98.4% 264 08-31-15
2 Gamepro011 97.6% 388 08-31-15
3 DarkPolarNight 96.1% 635 08-31-15
4 Jawzun 93.8% 1023 08-31-15
5 Dashjump 91.6% 1379 08-31-15
6 DarkspinesSonic 90.6% 1539 08-31-15
7 Avento128bits 90.2% 1609 08-31-15
8 ike6252 90.1% 1636 08-31-15
9 F-Man 88.3% 1927 08-31-15
10 HyperSonic7701 85.0% 2472 08-31-15
11 Coolfansonic 83.9% 2658 08-31-15
12 yoshifan 83.4% 2732 08-31-15
13 frankoredstrato 83.0% 2808 08-31-15
14 TheRealShadnic 82.1% 2956 08-31-15
15 francisco 82.0% 2971 08-31-15
16 Marth 81.7% 3020 08-31-15
17 InferSaime 80.4% 3230 08-31-15
18 PfoSonic 80.0% 3304 08-31-15
19 Paragod 79.5% 3376 08-31-15
20 THC98 78.4% 3563 08-31-15
21 Stefan 76.2% 3921 08-31-15
22 RPGnutter 74.0% 4287 08-31-15
23 bertin 73.9% 4301 08-31-15
24 sonicam 71.7% 4669 08-31-15
25 Combo 65.7% 5662 08-31-15
26 drminus 65.1% 5759 08-31-15
27 SkyLights 64.5% 5863 08-31-15
28 xXMegaManXx 63.7% 5996 08-31-15
29 Diamond 62.8% 6142 08-31-15
30 OmegaDJ 60.4% 6543 08-31-15
31 GerbilSoft 60.4% 6548 08-31-15
32 Auriman1 60.3% 6557 08-31-15
33 magnum12 59.4% 6709 08-31-15
34 Dawid8404 59.3% 6728 08-31-15
35 Thorn 57.3% 7050 08-31-15
36 P1 Pause 57.1% 7089 08-31-15
37 mike89 55.9% 7279 08-31-15
38 Groudon199 54.0% 7593 08-31-15
39 chainchumper 54.0% 7594 08-31-15
40 Dave Cramer 54.0% 7599 08-31-15
41 Parax 53.3% 7722 08-31-15
42 Shadow Jacky 52.8% 7794 08-31-15
43 Psymar 47.7% 8638 08-31-15
44 Chao_Fan 46.0% 8931 08-31-15
45 Arch 45.7% 8977 08-31-15
46 mauserman 45.4% 9022 08-31-15
47 Quartz 44.9% 9112 08-31-15
48 teamblackarms 43.8% 9286 08-31-15
49 Psyknux 43.6% 9326 08-31-15
50 James_Bertolli 43.0% 9423 08-31-15
51 NintenDan 42.6% 9491 08-31-15
52 Webber3000 42.0% 9589 08-31-15
53 Turbos 41.9% 9607 08-31-15
54 Ring Rush 41.7% 9633 08-31-15
55 Fr3nZy 41.6% 9645 08-31-15
56 Cream147 41.4% 9677 08-31-15
57 videogamemaster777 41.3% 9693 08-31-15
58 Siavash Tazari 41.1% 9738 08-31-15
59 buddychaos0415 40.6% 9810 08-31-15
60 SadisticMystic 40.0% 9918 08-31-15
61 eggFL 39.2% 10053 08-31-15
62 Redd 38.7% 10130 08-31-15
63 SB737 37.5% 10321 08-31-15
64 supersonicfan 36.5% 10498 08-31-15
65 FuzZerd 35.4% 10676 08-31-15
66 elecmouse101 34.6% 10804 08-31-15
67 supersonic465 34.6% 10814 08-31-15
68 Austinf 33.7% 10963 08-31-15
69 metanightmare22 33.1% 11054 08-31-15
70 Aitamen 32.9% 11083 08-31-15
71 dabestgamer 32.8% 11111 08-31-15
72 MiStEr_ShAoLiN 32.7% 11119 08-31-15
73 Cyan Ryan 32.6% 11132 08-31-15
74 itsPersonnal 31.8% 11278 08-31-15
75 Cybrax 31.0% 11399 08-31-15
76 Andrea Ritsu 31.0% 11403 08-31-15
77 SilvertheAlmighty 30.6% 11473 08-31-15
78 danieldude 30.6% 11475 08-31-15
79 VMU Player Banned 28.8% 11763 08-31-15
80 Omega Rafael Santos 28.5% 11824 08-31-15
81 Staf 28.3% 11846 08-31-15
82 The T 28.0% 11900 08-31-15
83 EngiNerd 27.7% 11955 08-31-15
84 lordmetalsonic 27.0% 12062 08-31-15
85 Hipertails12 26.8% 12106 08-31-15
86 welldooder64 26.4% 12172 08-31-15
87 GreatStar 26.3% 12178 08-31-15
88 Sondow 26.3% 12188 08-31-15
89 The Great Lord Mick 26.0% 12228 08-31-15
90 Mastakirby 25.9% 12251 08-31-15
91 LinksDarkArrows 25.8% 12259 08-31-15
92 Nimrod 25.6% 12300 08-31-15
93 Skylace 24.9% 12413 08-31-15
94 Rolken 23.4% 12654 08-31-15
95 Xia 21.8% 12926 08-31-15
96 Kogen Player Banned 21.8% 12929 08-31-15
97 a_moustache 21.7% 12942 08-31-15
98 Spinballwizard 21.6% 12958 08-31-15
99 Don 21.4% 12997 08-31-15
100 Cutiefox 21.2% 13018 08-31-15
101 Miles9999 21.2% 13021 08-31-15
102 f0rever_zer0 21.2% 13027 08-31-15
103 Game_Complete 21.1% 13048 08-31-15
104 Twilisailor 21.1% 13049 08-31-15
105 andres430 20.5% 13139 08-31-15
106 Cruizer 20.4% 13163 08-31-15
107 iSonicKid2K 20.1% 13199 08-31-15
108 SADXTryHard 19.8% 13257 08-31-15
109 GarnetPrincess 19.4% 13319 08-31-15
110 knuckles_sonic8 18.8% 13428 08-31-15
111 AxlThunder 18.7% 13437 08-31-15
112 Team_Yoshi 18.2% 13519 08-31-15
113 KinkyCadence 18.0% 13548 08-31-15
114 The Knuckles Chao 17.9% 13566 08-31-15
115 Termon 17.7% 13598 08-31-15
116 FoxBoy 17.7% 13607 08-31-15
117 LittleBigness 17.6% 13625 08-31-15
118 SonicWinDX 17.4% 13657 08-31-15
119 Sonic Singularity 15.5% 13960 08-31-15
120 Pokemonmaster888 15.5% 13966 08-31-15
121 BigAL49 14.5% 14137 08-31-15
122 Drakodan 14.4% 14150 08-31-15
123 SilverSonic 14.3% 14168 08-31-15
124 MPit08 14.2% 14184 08-31-15
125 WeegeeZV 14.1% 14203 08-31-15
126 Mo Player Banned 14.0% 14211 08-31-15
127 Cod4Scopes 13.4% 14312 08-31-15
128 Jerzia 13.4% 14313 08-31-15
129 HyperSonic64 13.3% 14339 08-31-15
130 booo95 13.2% 14345 08-31-15
131 Chawkk 13.0% 14375 08-31-15
132 paulie9990 13.0% 14388 08-31-15
133 Hunters13 12.9% 14389 08-31-15
134 SuperSonic101 12.9% 14394 08-31-15
135 Maxinfamily 12.7% 14436 08-31-15
136 PsyBorg 12.4% 14472 08-31-15
137 Kanimayo_Jp 12.4% 14473 08-31-15
138 Flying Fox 12.4% 14476 08-31-15
139 BrokenArthritis 12.3% 14497 08-31-15
140 LilZero 12.2% 14507 08-31-15
141 Therio 11.7% 14594 08-31-15
142 sonicspeed 11.7% 14596 08-31-15
143 douglas 11.5% 14625 08-31-15
144 Matt_TY 11.2% 14682 08-31-15
145 Cooljay 10.5% 14787 08-31-15
146 joecoolgames 10.5% 14790 08-31-15
147 SeaWolf 10.5% 14798 08-31-15
148 videogamer1014 10.1% 14855 08-31-15
149 TFEC Headshot 9.9% 14896 08-31-15
150 welshmoose05 9.8% 14906 08-31-15
151 crazy1993 9.6% 14943 08-31-15
152 OddCook 9.6% 14951 08-31-15
153 Mcshuggets 9.5% 14960 08-31-15
154 Mariobutch 9.2% 15002 08-31-15
155 imazor017 9.2% 15008 08-31-15
156 niscool 9.1% 15025 08-31-15
157 nuckrieg 9.0% 15039 08-31-15
158 SonicAD 9.0% 15048 08-31-15
159 SirTobbii 8.8% 15072 08-31-15
160 Shadowthegreat 8.7% 15091 08-31-15
161 superjupi 8.7% 15092 08-31-15
162 SaviourDC 8.4% 15140 08-31-15
163 iarebored 8.4% 15141 08-31-15
164 sonamyfan666 8.3% 15153 08-31-15
165 Werey 8.3% 15166 08-31-15
166 SonicKnuckles 8.2% 15171 08-31-15
167 adf 7.9% 15227 08-31-15
168 ArcticDragon 7.8% 15242 08-31-15
169 Megaman EXE565 7.7% 15263 08-31-15
170 Platformer 7.4% 15312 08-31-15
171 FocusSight64 7.3% 15321 08-31-15
172 wheatrich 7.2% 15339 08-31-15
173 Swift Hobo 7.2% 15346 08-31-15
173 timpkmn89 7.2% 15346 08-31-15
175 ethmar 7.1% 15359 08-31-15
176 Rickyman48 7.0% 15370 08-31-15
177 KitsuneYamaro 6.7% 15424 08-31-15
178 Triseena 6.6% 15438 08-31-15
179 CyberShadow 6.5% 15458 08-31-15
180 slade23 6.4% 15476 08-31-15
181 Starlight Sable 6.3% 15482 08-31-15
182 dShadow 6.3% 15493 08-31-15
183 IsisDazs 6.2% 15504 08-31-15
184 BlankTH 6.0% 15540 08-31-15
185 Monkeh 5.8% 15570 08-31-15
186 Richied 5.7% 15593 08-31-15
187 DaDude 5.6% 15606 08-31-15
188 SonicU260 5.5% 15616 08-31-15
189 sonicd5 5.5% 15624 08-31-15
190 Zip 5.4% 15642 08-31-15
191 VeritasDL 5.2% 15673 08-31-15
192 Kirbymon30 5.1% 15688 08-31-15
193 tal39h 5.1% 15692 08-31-15
194 soniccoloursunleashed 4.8% 15743 08-31-15
195 Drflash55 4.8% 15745 08-31-15
196 Yish 4.7% 15756 08-31-15
197 neaolas 4.6% 15770 08-31-15
198 Bass 4.6% 15772 08-31-15
199 Sonicsuperstar1 4.5% 15781 08-31-15
200 UninspiredUsername 4.5% 15784 08-31-15
201 superiorsonic 4.5% 15788 08-31-15
202 zapp 4.5% 15792 08-31-15
203 gamefreak1292 4.4% 15803 08-31-15
204 Chaos_Overlord 4.1% 15858 08-31-15
205 TakaRikka 4.0% 15872 08-31-15
206 Valfore 3.9% 15884 08-31-15
207 ShinigamiMachine 3.8% 15902 08-31-15
208 Regano1000 3.7% 15917 08-31-15
209 MK 3.6% 15939 08-31-15
210 Ace747 3.5% 15950 08-31-15
211 Illidan 3.2% 15998 08-31-15
212 HHNNBBHHN 3.2% 16006 08-31-15
213 Venick409 3.1% 16012 08-31-15
214 Brian_pso 3.1% 16024 08-31-15
215 Sithwarrior26 3.0% 16033 08-31-15
216 TheChaosEmeraIds 2.9% 16051 08-31-15
217 ingx24 2.9% 16052 08-31-15
218 SkyBon 2.8% 16061 08-31-15
219 Nickson98 2.8% 16062 08-31-15
220 FSSRandomvids 2.8% 16073 08-31-15
221 Fozer 2.7% 16079 08-31-15
222 sonic29887 2.7% 16084 08-31-15
223 Colomb_30 2.6% 16094 08-31-15
224 TheUltraBlur 2.6% 16100 08-31-15
225 1stKirbyever 2.5% 16112 08-31-15
226 Badlex727 2.4% 16137 08-31-15
227 Th4tN1nj4Turtl3 2.3% 16146 08-31-15
228 Cort_pso 2.3% 16148 08-31-15
229 Doom-9 2.3% 16150 08-31-15
230 nman36 2.2% 16163 08-31-15
231 ieatatsonic 2.2% 16165 08-31-15
232 Mariosonic15 2.2% 16166 08-31-15
233 SonataSpinDash 2.2% 16173 08-31-15
234 SuperSonic71087 2.2% 16174 08-31-15
235 MStitomix 2.1% 16181 08-31-15
236 HermitHelmet 2.1% 16188 08-31-15
237 Got4n 2.0% 16199 08-31-15
238 Artie 2.0% 16200 08-31-15
239 Questionguy555 2.0% 16206 08-31-15
240 Jose_15 2.0% 16208 08-31-15
241 djmat 1.8% 16228 08-31-15
242 SuperSonicfan9595 1.8% 16230 08-31-15
243 sonicandamy 1.7% 16243 08-31-15
244 LancexExWx 1.7% 16251 08-31-15
245 son1cgu1tar 1.7% 16255 08-31-15
246 Heroes_Hater 1.7% 16257 08-31-15
247 Paixii 1.6% 16260 08-31-15
248 BallzeH 1.5% 16277 08-31-15
249 Jamixesa 1.5% 16283 08-31-15
250 Mankster101 1.5% 16285 08-31-15
251 BecauseWarAnvil 1.5% 16287 08-31-15
252 Crydio 1.4% 16292 08-31-15
253 Shanekilz 1.4% 16298 08-31-15
254 SpiritDragon1995 1.4% 16299 08-31-15
255 ReuelBrony 1.4% 16305 08-31-15
256 stanski 1.3% 16311 08-31-15
257 MarewBFN 1.3% 16314 08-31-15
258 Sonique Hedgehog 1.3% 16319 08-31-15
259 p0ker 1.2% 16328 08-31-15
260 Blue Infamy 1.2% 16329 08-31-15
261 ErrortheCucco 1.2% 16339 08-31-15
262 Arthas 1.1% 16341 08-31-15
263 Rikum22 1.1% 16342 08-31-15
264 sonic1001 1.1% 16350 08-31-15
265 WingedInsignia 1.1% 16352 08-31-15
266 AJSIV 1.1% 16356 08-31-15
267 syco1098 1.1% 16357 08-31-15
268 Sonic the Hedgehod16 1.0% 16360 08-31-15
269 sonicfan9 1.0% 16363 08-31-15
270 Calfd 1.0% 16368 08-31-15
271 BlackArmsShadow 0.9% 16377 08-31-15
272 themachoman202 0.9% 16382 08-31-15
273 Ben1502 0.9% 16387 08-31-15
274 Greham Adelphis 0.9% 16388 08-31-15
275 shadowblast63 Player Banned 0.9% 16389 08-31-15
276 Fivavoa 0.9% 16390 08-31-15
276 MastaToken 0.9% 16390 08-31-15
278 Mr. Jones 0.8% 16392 08-31-15
279 arcfx1985 0.8% 16394 08-31-15
280 darkstarblaze 0.8% 16395 08-31-15
280 ptorflaxendrosis 0.8% 16395 08-31-15
282 Gvozdevik 0.8% 16398 08-31-15
283 FlandreScarlet9999vr 0.8% 16399 08-31-15
283 Knuckles 0.8% 16399 08-31-15
285 Zeldocto 0.8% 16404 08-31-15
286 KaM Mark MaK 0.7% 16409 08-31-15
287 BeeAwwb 0.7% 16410 08-31-15
288 ShadouZaHejjihoggu 0.7% 16415 08-31-15
289 Sonic62 0.7% 16420 08-31-15
290 darkersupershadic 0.6% 16424 08-31-15
291 Sogeking 0.6% 16425 08-31-15
292 dragondragon18 0.6% 16427 08-31-15
292 Shadygamerfreak 0.6% 16427 08-31-15
292 SonicK100 0.6% 16427 08-31-15
295 Grady219 0.6% 16430 08-31-15
295 Sarger001 0.6% 16430 08-31-15
297 Jawaah 0.6% 16433 08-31-15
298 Antek 0.6% 16439 08-31-15
299 Klaus 0.5% 16441 08-31-15
299 SilverK 0.5% 16441 08-31-15
301 SpinDashMaster 0.5% 16444 08-31-15
302 BioShadow 0.5% 16447 08-31-15
303 Videogamer123 0.5% 16449 08-31-15
304 oTaiIilLsS 0.4% 16463 08-31-15
305 Egor305 0.4% 16464 08-31-15
306 isaihtb11 0.4% 16466 08-31-15
306 Mad Andy 0.4% 16466 08-31-15
308 OhNoes! 0.4% 16467 08-31-15
309 S-MS32X-S 0.4% 16469 08-31-15
309 zaktu40 0.4% 16469 08-31-15
311 gaara1234 0.4% 16472 08-31-15
312 gamed00d 0.3% 16475 08-31-15
313 Mister_Slick 0.3% 16482 08-31-15
314 Sonic06Fan 0.3% 16485 08-31-15
315 Rush Hero 0.3% 16487 08-31-15
316 SonicMega167 0.2% 16491 08-31-15
317 Iwannabelink 0.2% 16492 08-31-15
318 sonknuck23 0.2% 16495 08-31-15
319 DanielTheFalcon 0.2% 16501 08-31-15
319 gamer1245 0.2% 16501 08-31-15
321 Burningskull123 0.1% 16510 08-31-15
322 Sonicontherun 0.1% 16519 08-31-15
323 Lil_Dude 0.0% 16523 08-31-15
324 antiwwe 0.0% 16525 08-31-15
325 Cbwade15 0.0% 16529 08-31-15
325 Genuine Hedgehog 0.0% 16529 08-31-15
327 Tyrouble 0.0% 16532 08-31-15
328 MegabombBlade 0.0% 16539 08-31-15
328 neji_hyuuga 0.0% 16539 08-31-15
328 Over 0.0% 16539 08-31-15
328 sdj6707 Player Banned 0.0% 16539 08-31-15
328 Tran Sonic Fan Player Banned 0.0% 16539 08-31-15

This page is using the New Data Table System. [FUTURE]

Game ID: 3 | Category ID: 10
Hits: 64,514 | Hits This Month: 367 | DB Calls: 21 | Mem Usage: 5.45 MB | Time: 0.24s | Printable

The Sonic Center v3.9
Copyright 2003-2011 by The Sonic Center Team.